Time;durP1;ratioP1;P1;durP2;ratioP2;P2;SDS_P1;SDS_P2;PMS_P1;PMS_P2;Temp;Humidity;BMP_temperature;BMP_pressure;BME280_temperature;BME280_humidity;BME280_pressure;Samples;Min_cycle;Max_cycle;Signal;HPM_P1;HPM_P2
2022/09/04 00:01:12;;;;;;;0.88;0.88;;;24.40;49.60;;;;;;5048538;28;20454;-58
2022/09/04 00:03:55;;;;;;;0.82;0.82;;;24.40;49.70;;;;;;5049036;28;20544;-58
2022/09/04 00:06:31;;;;;;;3.42;1.00;;;24.40;49.70;;;;;;5048507;28;20094;-58
2022/09/04 00:09:11;;;;;;;1.17;0.90;;;24.40;49.70;;;;;;5048720;28;20049;-58
2022/09/04 00:11:58;;;;;;;0.80;0.80;;;24.40;49.70;;;;;;5048480;28;20572;-58
2022/09/04 00:14:42;;;;;;;1.02;1.00;;;24.40;49.70;;;;;;5047277;28;20303;-58
2022/09/04 00:17:34;;;;;;;0.90;0.80;;;24.40;49.70;;;;;;5048372;28;20082;-58
2022/09/04 00:20:11;;;;;;;0.95;0.93;;;24.40;49.70;;;;;;5047679;28;20081;-58
2022/09/04 00:23:00;;;;;;;1.40;0.70;;;24.40;49.70;;;;;;5048380;28;20045;-58
2022/09/04 00:25:43;;;;;;;1.05;0.88;;;24.40;49.70;;;;;;5048024;28;20076;-59
2022/09/04 00:28:35;;;;;;;1.23;0.80;;;24.40;49.70;;;;;;5047910;28;20045;-58
2022/09/04 00:31:27;;;;;;;1.02;0.75;;;24.40;49.70;;;;;;5042091;28;20432;-59
2022/09/04 00:34:14;;;;;;;0.98;0.98;;;24.40;49.80;;;;;;5047550;28;20049;-58
2022/09/04 00:36:46;;;;;;;0.70;0.70;;;24.40;49.80;;;;;;5046957;28;20119;-59
2022/09/04 00:39:27;;;;;;;0.80;0.60;;;24.40;49.80;;;;;;5047757;28;20049;-59
2022/09/04 00:42:14;;;;;;;0.60;0.60;;;24.40;49.80;;;;;;5046939;28;20502;-59
2022/09/04 00:45:18;;;;;;;0.90;0.90;;;24.40;49.80;;;;;;5047837;28;20104;-58
2022/09/04 00:48:20;;;;;;;0.65;0.65;;;24.40;49.80;;;;;;5048027;28;20076;-58
2022/09/04 00:51:16;;;;;;;0.80;0.80;;;24.40;49.80;;;;;;5047966;28;20114;-58
2022/09/04 00:54:22;;;;;;;1.25;1.13;;;24.40;49.80;;;;;;5048202;28;20091;-58
2022/09/04 00:57:21;;;;;;;1.00;0.98;;;24.40;49.80;;;;;;5046528;28;20489;-58
2022/09/04 01:00:09;;;;;;;0.80;0.80;;;24.40;49.80;;;;;;5048068;28;20049;-58
2022/09/04 01:02:53;;;;;;;0.95;0.68;;;24.40;49.80;;;;;;5041868;28;20378;-58
2022/09/04 01:05:48;;;;;;;0.82;0.77;;;24.40;49.80;;;;;;5047974;28;20474;-59
2022/09/04 01:08:54;;;;;;;0.70;0.70;;;24.40;49.80;;;;;;5047428;28;20490;-58
2022/09/04 01:12:00;;;;;;;1.10;0.90;;;24.40;49.80;;;;;;5047047;28;20077;-58
2022/09/04 01:14:44;;;;;;;0.77;0.77;;;24.40;49.80;;;;;;5046688;28;20107;-58
2022/09/04 01:17:26;;;;;;;;;;;24.40;49.80;;;;;;5048249;28;20057;-57
2022/09/04 01:20:19;;;;;;;1.73;0.73;;;24.40;49.80;;;;;;5047330;28;19920;-58
2022/09/04 01:23:11;;;;;;;1.75;1.00;;;24.40;49.80;;;;;;5047736;28;20307;-57
2022/09/04 01:26:17;;;;;;;0.75;0.75;;;24.40;49.80;;;;;;5047207;28;20080;-57
2022/09/04 01:29:17;;;;;;;0.90;0.80;;;24.40;49.80;;;;;;5046744;28;20107;-57
2022/09/04 01:32:11;;;;;;;1.38;1.27;;;24.40;49.80;;;;;;5046620;28;20559;-58
2022/09/04 01:35:01;;;;;;;0.70;0.70;;;24.40;49.90;;;;;;5044444;28;20081;-58
2022/09/04 01:37:54;;;;;;;1.10;1.00;;;24.40;49.90;;;;;;5046043;28;20083;-58
2022/09/04 01:40:50;;;;;;;1.02;0.93;;;24.40;49.90;;;;;;5049213;28;20076;-57
2022/09/04 01:43:20;;;;;;;0.70;0.70;;;24.40;49.90;;;;;;5051147;28;20509;-58
2022/09/04 01:46:23;;;;;;;1.00;1.00;;;24.40;49.90;;;;;;5051202;28;20063;-57
2022/09/04 01:49:26;;;;;;;1.10;0.80;;;24.40;49.90;;;;;;5051278;28;20041;-58
2022/09/04 01:52:09;;;;;;;0.95;0.88;;;24.30;49.80;;;;;;5049578;28;20049;-57
2022/09/04 01:54:52;;;;;;;0.70;0.70;;;24.30;49.80;;;;;;5051711;28;20049;-57
2022/09/04 01:57:48;;;;;;;0.90;0.90;;;24.30;49.90;;;;;;5050763;28;20095;-58
2022/09/04 02:00:18;;;;;;;0.95;0.90;;;24.30;49.80;;;;;;5051324;28;20729;-58
2022/09/04 02:03:21;;;;;;;1.02;0.93;;;24.30;49.90;;;;;;5051060;28;20398;-58
2022/09/04 02:06:18;;;;;;;0.82;0.82;;;24.30;49.90;;;;;;5046576;28;20464;-58
2022/09/04 02:09:25;;;;;;;0.80;0.80;;;24.30;49.90;;;;;;5049188;28;20045;-58
2022/09/04 02:12:10;;;;;;;1.65;1.30;;;24.30;49.90;;;;;;5050049;28;20684;-58
2022/09/04 02:14:57;;;;;;;1.25;1.15;;;24.40;49.90;;;;;;5050737;28;20175;-58
2022/09/04 02:17:46;;;;;;;0.95;0.90;;;24.30;49.90;;;;;;5050422;28;20053;-59
2022/09/04 02:20:29;;;;;;;0.80;0.80;;;24.30;50.00;;;;;;5050441;28;20297;-58
2022/09/04 02:23:36;;;;;;;2.67;0.85;;;24.30;50.00;;;;;;5050000;28;20179;-58
2022/09/04 02:26:14;;;;;;;0.93;0.93;;;24.40;50.00;;;;;;5050612;28;20667;-58
2022/09/04 02:29:14;;;;;;;2.55;0.68;;;24.40;50.00;;;;;;5050248;28;20040;-58
2022/09/04 02:32:11;;;;;;;0.88;0.70;;;24.40;50.00;;;;;;5050495;28;20106;-58
2022/09/04 02:35:04;;;;;;;0.93;0.88;;;24.30;49.90;;;;;;5050364;28;20077;-58
2022/09/04 02:37:54;;;;;;;1.63;1.05;;;24.40;50.50;;;;;;5045327;28;20648;-58
2022/09/04 02:40:42;;;;;;;1.02;0.93;;;24.40;50.00;;;;;;5050351;28;20053;-59
2022/09/04 02:43:40;;;;;;;0.80;0.80;;;24.40;49.90;;;;;;5050254;28;20127;-58
2022/09/04 02:46:38;;;;;;;0.80;0.80;;;24.40;50.00;;;;;;5049997;28;20045;-58
2022/09/04 02:49:29;;;;;;;0.90;0.90;;;24.40;49.90;;;;;;5050064;28;20045;-58
2022/09/04 02:52:32;;;;;;;0.88;0.70;;;24.40;49.90;;;;;;5049790;28;20132;-58
2022/09/04 02:55:40;;;;;;;0.65;0.65;;;24.40;49.90;;;;;;5050361;28;20037;-58
2022/09/04 02:58:48;;;;;;;0.90;0.70;;;24.40;49.90;;;;;;5049585;28;20091;-58
2022/09/04 03:01:27;;;;;;;1.10;1.02;;;24.30;49.90;;;;;;5049137;28;20049;-58
2022/09/04 03:04:19;;;;;;;0.60;0.60;;;24.30;49.90;;;;;;5049675;28;20049;-58
2022/09/04 03:07:09;;;;;;;0.65;0.65;;;24.30;49.90;;;;;;5049645;28;20533;-59
2022/09/04 03:09:45;;;;;;;1.10;1.10;;;24.30;49.90;;;;;;5045563;28;20319;-58
2022/09/04 03:12:52;;;;;;;0.75;0.70;;;24.30;49.90;;;;;;5049681;28;20591;-58
2022/09/04 03:15:44;;;;;;;0.60;0.60;;;24.30;50.00;;;;;;5048630;28;20433;-58
2022/09/04 03:18:49;;;;;;;0.85;0.80;;;24.30;50.00;;;;;;5049703;28;20060;-58
2022/09/04 03:21:25;;;;;;;0.80;0.80;;;24.30;50.50;;;;;;5048570;28;20091;-58
2022/09/04 03:24:06;;;;;;;1.10;1.00;;;24.30;50.00;;;;;;5049098;28;20451;-58
2022/09/04 03:26:44;;;;;;;1.40;1.30;;;24.30;50.00;;;;;;5049199;28;20045;-58
2022/09/04 03:29:29;;;;;;;0.88;0.80;;;24.30;50.00;;;;;;5049087;28;20088;-58
2022/09/04 03:32:19;;;;;;;1.88;0.82;;;24.30;50.00;;;;;;5049360;28;20102;-58
2022/09/04 03:35:06;;;;;;;0.80;0.80;;;24.30;50.00;;;;;;5031991;28;20075;-58
2022/09/04 03:38:02;;;;;;;0.70;0.70;;;24.30;50.00;;;;;;5049292;28;20037;-58
2022/09/04 03:40:44;;;;;;;0.82;0.82;;;24.30;50.00;;;;;;5044530;28;20075;-58
2022/09/04 03:43:41;;;;;;;0.88;0.88;;;24.30;50.00;;;;;;5049421;28;20094;-58
2022/09/04 03:46:33;;;;;;;0.90;0.90;;;24.30;50.00;;;;;;5048763;28;20080;-58
2022/09/04 03:49:28;;;;;;;0.80;0.80;;;24.30;50.00;;;;;;5049379;28;20048;-58
2022/09/04 03:52:22;;;;;;;1.10;1.00;;;24.30;50.00;;;;;;5048461;28;20033;-58
2022/09/04 03:55:06;;;;;;;1.17;0.82;;;24.30;50.00;;;;;;5047210;28;20053;-58
2022/09/04 03:58:01;;;;;;;0.70;0.70;;;24.30;50.00;;;;;;5048720;28;20551;-58
2022/09/04 04:00:55;;;;;;;0.90;0.90;;;24.30;50.00;;;;;;5048888;28;20036;-58
2022/09/04 04:03:55;;;;;;;0.88;0.73;;;24.30;50.10;;;;;;5047836;28;20072;-58
2022/09/04 04:06:50;;;;;;;1.47;0.83;;;24.30;50.00;;;;;;5047706;28;20533;-58
2022/09/04 04:09:46;;;;;;;0.95;0.95;;;24.30;50.10;;;;;;5048809;28;20286;-58
2022/09/04 04:12:41;;;;;;;0.98;0.93;;;24.30;50.10;;;;;;5044225;28;20053;-58
2022/09/04 04:15:37;;;;;;;0.80;0.80;;;24.30;50.10;;;;;;5048702;28;20052;-59
2022/09/04 04:18:37;;;;;;;0.88;0.80;;;24.30;50.10;;;;;;5047947;28;20040;-58
2022/09/04 04:21:54;;;;;;;1.45;1.05;;;24.30;50.10;;;;;;5048138;28;20049;-58
2022/09/04 04:24:48;;;;;;;0.77;0.77;;;24.30;50.10;;;;;;5048174;28;20056;-58
2022/09/04 04:27:52;;;;;;;1.67;1.58;;;24.30;50.00;;;;;;5048103;28;20052;-58
2022/09/04 04:30:20;;;;;;;0.68;0.68;;;24.30;50.10;;;;;;5048493;28;20136;-58
2022/09/04 04:33:17;;;;;;;0.80;0.80;;;24.30;50.00;;;;;;5048172;28;20231;-58
2022/09/04 04:35:59;;;;;;;0.82;0.82;;;24.40;50.10;;;;;;5047995;28;20138;-58
2022/09/04 04:38:56;;;;;;;0.82;0.82;;;24.40;50.00;;;;;;5048262;28;20102;-58
2022/09/04 04:42:04;;;;;;;0.80;0.80;;;24.40;50.00;;;;;;5047906;28;20123;-58
2022/09/04 04:48:14;;;;;;;1.33;0.80;;;24.40;50.00;;;;;;5047055;28;20040;-58
2022/09/04 04:51:18;;;;;;;0.80;0.80;;;24.40;49.90;;;;;;5046740;28;20468;-58
2022/09/04 04:54:12;;;;;;;0.80;0.80;;;24.40;49.90;;;;;;5048285;28;20041;-58
2022/09/04 04:57:08;;;;;;;0.73;0.73;;;24.40;49.90;;;;;;5048603;28;20079;-58
2022/09/04 05:00:06;;;;;;;1.02;0.70;;;24.40;49.90;;;;;;5048289;28;20045;-58
2022/09/04 05:02:52;;;;;;;0.95;0.90;;;24.40;49.90;;;;;;5046929;28;20279;-58
2022/09/04 05:05:48;;;;;;;0.85;0.85;;;24.40;49.80;;;;;;5048382;28;20049;-58
2022/09/04 05:08:41;;;;;;;1.00;1.00;;;24.40;49.70;;;;;;5047408;28;20080;-59
2022/09/04 05:11:47;;;;;;;1.30;1.20;;;24.40;49.70;;;;;;5047710;28;20106;-58
2022/09/04 05:14:46;;;;;;;1.13;1.02;;;24.40;49.70;;;;;;5043374;28;20099;-58
2022/09/04 05:17:44;;;;;;;1.80;1.10;;;24.20;49.80;;;;;;5052030;28;20085;-58
2022/09/04 05:20:36;;;;;;;4.35;1.50;;;24.00;50.20;;;;;;5051499;28;20548;-58
2022/09/04 05:23:18;;;;;;;3.00;1.80;;;23.80;50.70;;;;;;5050775;28;20080;-58
2022/09/04 05:26:10;;;;;;;1.10;1.10;;;23.50;50.80;;;;;;5050347;28;20059;-58
2022/09/04 05:29:06;;;;;;;1.60;1.50;;;23.10;50.20;;;;;;5050727;28;20037;-58
2022/09/04 05:31:56;;;;;;;1.15;1.15;;;22.70;49.90;;;;;;5051595;28;20053;-58
2022/09/04 05:34:56;;;;;;;1.73;1.48;;;22.30;49.90;;;;;;5051376;28;20532;-58
2022/09/04 05:37:49;;;;;;;1.60;1.35;;;21.80;49.70;;;;;;5051364;28;20537;-58
2022/09/04 05:40:32;;;;;;;1.75;1.65;;;21.40;49.90;;;;;;5050799;28;20395;-58
2022/09/04 05:43:29;;;;;;;1.63;1.58;;;21.00;51.00;;;;;;5051703;28;20122;-58
2022/09/04 05:46:26;;;;;;;2.22;1.70;;;20.60;52.20;;;;;;5046832;28;20045;-58
2022/09/04 05:49:33;;;;;;;1.65;1.55;;;20.40;52.40;;;;;;5051579;28;20280;-58
2022/09/04 05:52:21;;;;;;;1.50;1.27;;;20.20;52.80;;;;;;5051321;28;20079;-58
2022/09/04 05:55:24;;;;;;;1.90;1.70;;;19.90;53.80;;;;;;5051703;28;20056;-58
2022/09/04 05:58:09;;;;;;;1.90;1.80;;;19.80;53.00;;;;;;5050668;28;20547;-57
2022/09/04 06:01:04;;;;;;;1.70;1.60;;;19.60;53.70;;;;;;5050724;28;20106;-57
2022/09/04 06:04:11;;;;;;;2.15;1.95;;;19.50;54.30;;;;;;5050808;28;20080;-58
2022/09/04 06:06:57;;;;;;;2.88;1.50;;;19.40;54.20;;;;;;5049640;28;20144;-58
2022/09/04 06:09:55;;;;;;;2.47;1.83;;;19.30;54.80;;;;;;5051048;28;20040;-58
2022/09/04 06:12:54;;;;;;;2.15;2.03;;;19.20;55.30;;;;;;5050962;28;20049;-58
2022/09/04 06:16:01;;;;;;;1.95;1.80;;;19.20;55.10;;;;;;5049470;28;20045;-58
2022/09/04 06:18:56;;;;;;;2.45;1.83;;;19.10;55.00;;;;;;5046141;28;20055;-58
2022/09/04 06:22:00;;;;;;;3.08;1.80;;;19.10;55.30;;;;;;5050144;28;20114;-58
2022/09/04 06:24:51;;;;;;;2.60;2.33;;;19.10;54.60;;;;;;5050274;28;20132;-58
2022/09/04 06:27:55;;;;;;;2.25;2.05;;;19.00;55.80;;;;;;5050179;28;20083;-58
2022/09/04 06:30:29;;;;;;;2.47;2.08;;;19.00;55.50;;;;;;5051037;28;20052;-58
2022/09/04 06:33:23;;;;;;;1.80;1.70;;;18.90;55.10;;;;;;5049658;28;20048;-58
2022/09/04 06:36:23;;;;;;;1.83;1.73;;;18.90;56.70;;;;;;5051019;28;20095;-58
2022/09/04 06:39:30;;;;;;;2.90;2.03;;;18.90;55.60;;;;;;5049306;28;20347;-58
2022/09/04 06:42:27;;;;;;;3.58;2.38;;;18.90;55.40;;;;;;5050160;28;20060;-58
2022/09/04 06:45:34;;;;;;;2.40;2.20;;;18.80;56.40;;;;;;5049260;28;20044;-58
2022/09/04 06:48:17;;;;;;;3.13;2.50;;;18.80;56.00;;;;;;5050171;28;20049;-58
2022/09/04 06:50:57;;;;;;;2.38;2.17;;;18.70;56.10;;;;;;5046329;28;20042;-57
2022/09/04 06:53:52;;;;;;;2.17;1.98;;;18.70;56.50;;;;;;5049863;28;20056;-58
2022/09/04 06:56:37;;;;;;;2.13;2.03;;;18.70;56.00;;;;;;5050031;28;20045;-58
2022/09/04 06:59:44;;;;;;;2.67;2.10;;;18.70;56.40;;;;;;5049878;28;20068;-58
2022/09/04 07:02:49;;;;;;;3.03;2.22;;;18.70;56.80;;;;;;5049414;28;20041;-58
2022/09/04 07:05:54;;;;;;;2.38;2.20;;;18.60;56.30;;;;;;5050031;28;20339;-58
2022/09/04 07:09:01;;;;;;;2.72;2.50;;;18.60;56.80;;;;;;5048481;28;20049;-58
2022/09/04 07:11:47;;;;;;;2.50;2.30;;;18.60;56.80;;;;;;5050044;28;20068;-58
2022/09/04 07:14:50;;;;;;;3.40;2.33;;;18.60;56.50;;;;;;5049703;28;20107;-58
2022/09/04 07:17:57;;;;;;;3.28;2.53;;;18.60;56.70;;;;;;5048167;28;20562;-58
2022/09/04 07:21:02;;;;;;;2.58;2.38;;;18.60;56.20;;;;;;5046220;28;20045;-58
2022/09/04 07:23:55;;;;;;;2.70;2.50;;;18.60;55.60;;;;;;5048526;28;20075;-58
2022/09/04 07:26:51;;;;;;;3.30;2.40;;;18.50;56.90;;;;;;5049864;28;20401;-58
2022/09/04 07:29:32;;;;;;;3.30;2.45;;;18.50;56.90;;;;;;5049620;28;20080;-58
2022/09/04 07:32:22;;;;;;;2.95;2.75;;;18.50;56.80;;;;;;5049647;28;20068;-58
2022/09/04 07:35:21;;;;;;;3.72;2.75;;;18.50;57.30;;;;;;5049157;28;20045;-58
2022/09/04 07:38:15;;;;;;;2.72;2.35;;;18.50;57.00;;;;;;5047211;28;20053;-58
2022/09/04 07:41:22;;;;;;;3.10;2.63;;;18.40;56.90;;;;;;5048768;28;20073;-58
2022/09/04 07:44:08;;;;;;;4.00;3.35;;;18.50;57.90;;;;;;5049169;28;20491;-58
2022/09/04 07:47:10;;;;;;;4.55;3.35;;;18.40;57.10;;;;;;5049443;28;20106;-58
2022/09/04 07:50:17;;;;;;;2.97;2.78;;;18.40;57.40;;;;;;5049781;28;20099;-58
2022/09/04 07:53:18;;;;;;;3.25;2.65;;;18.40;58.00;;;;;;5044030;28;20106;-58
2022/09/04 07:55:47;;;;;;;;;;;18.30;56.90;;;;;;5049768;28;20479;-58
2022/09/04 07:58:49;;;;;;;3.75;2.60;;;18.20;57.50;;;;;;5048534;28;20418;-58
2022/09/04 08:01:38;;;;;;;3.20;2.90;;;18.20;57.80;;;;;;5048286;28;20076;-58
2022/09/04 08:04:44;;;;;;;3.13;2.83;;;18.10;57.80;;;;;;5048271;28;20468;-58
2022/09/04 08:07:34;;;;;;;3.38;3.08;;;18.00;57.50;;;;;;5049393;28;20080;-58
2022/09/04 08:10:25;;;;;;;3.40;2.95;;;17.90;57.40;;;;;;5048302;28;20099;-58
2022/09/04 08:13:32;;;;;;;3.28;2.97;;;17.90;57.50;;;;;;5048699;28;20045;-58
2022/09/04 08:16:07;;;;;;;3.40;3.10;;;17.90;57.90;;;;;;5048431;28;20099;-58
2022/09/04 08:19:14;;;;;;;3.92;3.35;;;17.90;58.10;;;;;;5049101;28;20044;-58
2022/09/04 08:21:43;;;;;;;5.30;3.22;;;17.90;57.90;;;;;;5048065;28;20049;-58
2022/09/04 08:24:33;;;;;;;3.50;3.22;;;17.80;58.40;;;;;;5042098;28;20045;-58
2022/09/04 08:27:40;;;;;;;3.72;3.20;;;17.90;58.20;;;;;;5048411;28;20391;-58
2022/09/04 08:30:13;;;;;;;2.78;2.58;;;17.90;58.40;;;;;;5046884;28;20106;-58
2022/09/04 08:33:17;;;;;;;3.53;3.15;;;17.90;59.00;;;;;;5048641;28;20107;-59
2022/09/04 08:36:09;;;;;;;5.57;3.90;;;18.00;58.10;;;;;;5046996;28;20068;-58
2022/09/04 08:39:02;;;;;;;3.70;3.40;;;17.90;57.80;;;;;;5048383;28;20144;-58
2022/09/04 08:42:10;;;;;;;2.88;2.63;;;17.90;57.90;;;;;;5048418;28;20071;-59
2022/09/04 08:45:16;;;;;;;4.32;3.63;;;17.90;57.90;;;;;;5047895;28;20292;-58
2022/09/04 08:48:22;;;;;;;5.10;3.40;;;17.90;58.10;;;;;;5047322;28;20567;-58
2022/09/04 08:51:20;;;;;;;3.40;3.10;;;17.80;58.30;;;;;;5032816;28;20049;-58
2022/09/04 08:54:30;;;;;;;4.57;3.22;;;17.80;58.20;;;;;;5047780;28;20040;-58
2022/09/04 08:57:26;;;;;;;4.90;4.10;;;17.80;58.80;;;;;;5042594;28;20127;-58
2022/09/04 09:00:14;;;;;;;3.40;3.17;;;17.80;58.60;;;;;;5047663;28;20105;-58
2022/09/04 09:03:21;;;;;;;3.47;3.10;;;17.80;58.00;;;;;;5048126;28;20087;-58
2022/09/04 09:06:18;;;;;;;3.50;3.20;;;17.80;58.70;;;;;;5047782;28;20500;-58
2022/09/04 09:09:17;;;;;;;3.72;3.40;;;17.80;59.60;;;;;;5048312;28;20044;-57
2022/09/04 09:12:21;;;;;;;3.83;3.50;;;17.70;58.70;;;;;;5047683;28;20571;-58
2022/09/04 09:15:28;;;;;;;5.18;4.10;;;17.80;60.00;;;;;;5048395;28;20053;-58
2022/09/04 09:18:20;;;;;;;4.72;3.40;;;17.80;59.70;;;;;;5045959;28;20056;-58
2022/09/04 09:21:10;;;;;;;4.68;3.65;;;17.80;59.70;;;;;;5047615;28;20045;-58
2022/09/04 09:24:17;;;;;;;4.72;3.83;;;17.90;59.50;;;;;;5048101;28;20057;-58
2022/09/04 09:27:20;;;;;;;3.90;3.50;;;18.00;60.10;;;;;;5046311;28;20045;-58
2022/09/04 09:30:07;;;;;;;4.53;3.65;;;18.00;59.80;;;;;;5047353;28;20053;-58
2022/09/04 09:33:14;;;;;;;5.75;4.03;;;18.00;59.90;;;;;;5047826;28;20053;-58
2022/09/04 09:36:16;;;;;;;4.82;3.92;;;18.10;59.90;;;;;;5046814;28;20052;-58
2022/09/04 09:39:14;;;;;;;4.85;4.35;;;18.20;59.70;;;;;;5047397;28;20053;-58
2022/09/04 09:41:58;;;;;;;4.28;3.88;;;18.20;59.50;;;;;;5047413;28;20118;-58
2022/09/04 09:44:55;;;;;;;4.45;3.67;;;18.30;59.80;;;;;;5047851;28;20052;-58
2022/09/04 09:47:53;;;;;;;5.28;3.55;;;18.30;59.40;;;;;;5047468;28;20041;-58
2022/09/04 09:50:55;;;;;;;4.45;3.92;;;18.30;59.30;;;;;;5047413;28;20049;-58
2022/09/04 09:53:48;;;;;;;4.35;3.95;;;18.40;59.20;;;;;;5046046;28;20108;-58
2022/09/04 09:56:55;;;;;;;4.63;4.13;;;18.40;59.40;;;;;;5046582;28;20080;-58
2022/09/04 10:00:05;;;;;;;7.97;4.63;;;18.40;59.50;;;;;;5042725;28;20103;-58
2022/09/04 10:03:12;;;;;;;4.13;3.73;;;18.40;59.00;;;;;;5050095;28;20045;-58
2022/09/04 10:06:10;;;;;;;4.32;3.92;;;18.40;58.70;;;;;;5050402;28;20053;-58
2022/09/04 10:09:16;;;;;;;4.97;4.30;;;18.50;58.70;;;;;;5050062;28;20450;-59
2022/09/04 10:12:23;;;;;;;4.53;4.00;;;18.40;59.00;;;;;;5049702;28;20052;-58
2022/09/04 10:15:24;;;;;;;5.07;4.40;;;18.40;58.80;;;;;;5051012;28;20490;-58
2022/09/04 10:18:32;;;;;;;4.53;4.13;;;18.40;59.00;;;;;;5050736;28;20056;-58
2022/09/04 10:21:38;;;;;;;5.18;3.97;;;18.50;59.10;;;;;;5050667;28;20088;-58
2022/09/04 10:24:36;;;;;;;4.05;3.60;;;18.50;59.00;;;;;;5050229;28;20127;-58
2022/09/04 10:27:44;;;;;;;4.32;3.80;;;18.50;59.60;;;;;;5050255;28;20533;-58
2022/09/04 10:30:21;;;;;;;4.72;4.25;;;18.50;59.80;;;;;;5047225;28;20448;-58
2022/09/04 10:33:19;;;;;;;4.55;4.15;;;18.50;59.20;;;;;;5050696;28;20409;-58
2022/09/04 10:36:07;;;;;;;5.40;3.88;;;18.50;59.10;;;;;;5049101;28;20409;-58
2022/09/04 10:42:03;;;;;;;4.15;3.80;;;18.50;59.50;;;;;;5049949;28;20127;-58
2022/09/04 10:44:47;;;;;;;5.25;3.28;;;18.60;59.10;;;;;;5050432;28;20473;-58
2022/09/04 10:47:45;;;;;;;4.05;3.70;;;18.60;58.80;;;;;;5049947;28;20455;-58
2022/09/04 10:50:40;;;;;;;3.78;3.47;;;18.60;58.60;;;;;;5049826;28;20044;-58
2022/09/04 10:53:41;;;;;;;4.32;3.92;;;18.60;58.70;;;;;;5049957;28;20091;-58
2022/09/04 10:56:34;;;;;;;6.60;3.85;;;18.60;58.20;;;;;;5048804;28;20098;-58
2022/09/04 10:59:22;;;;;;;4.25;3.88;;;18.70;59.20;;;;;;5049914;28;20285;-59
2022/09/04 11:02:21;;;;;;;5.45;3.83;;;18.70;59.40;;;;;;5045884;28;20048;-58
2022/09/04 11:05:17;;;;;;;4.90;3.78;;;18.70;58.60;;;;;;5050248;28;20045;-58
2022/09/04 11:08:12;;;;;;;4.32;3.92;;;18.80;58.80;;;;;;5049661;28;20049;-58
2022/09/04 11:11:14;;;;;;;4.82;4.32;;;18.80;58.50;;;;;;5049822;28;20048;-58
2022/09/04 11:14:09;;;;;;;3.88;3.58;;;18.80;58.60;;;;;;5048523;28;20057;-59
2022/09/04 11:17:16;;;;;;;4.50;4.10;;;18.80;58.70;;;;;;5049483;28;20045;-58
2022/09/04 11:20:18;;;;;;;4.95;3.92;;;18.80;58.30;;;;;;5049097;28;20044;-59
2022/09/04 11:23:17;;;;;;;4.40;3.90;;;18.80;58.10;;;;;;5049627;28;20049;-59
2022/09/04 11:26:25;;;;;;;3.67;3.38;;;18.80;58.20;;;;;;5048655;28;20045;-58
2022/09/04 11:29:19;;;;;;;4.75;4.35;;;18.80;57.90;;;;;;5049655;28;20531;-59
2022/09/04 11:32:26;;;;;;;4.22;3.83;;;18.80;58.60;;;;;;5048847;28;20508;-58
2022/09/04 11:35:28;;;;;;;5.07;3.85;;;18.80;58.80;;;;;;5044831;28;20416;-58
2022/09/04 11:38:08;;;;;;;4.25;3.88;;;18.80;58.70;;;;;;5048342;28;20087;-58
2022/09/04 11:41:06;;;;;;;4.70;3.67;;;18.90;58.20;;;;;;5049266;28;20099;-58
2022/09/04 11:44:00;;;;;;;4.07;3.70;;;18.90;58.20;;;;;;5048028;28;20107;-58
2022/09/04 11:47:06;;;;;;;3.63;3.28;;;19.00;58.30;;;;;;5049093;28;20071;-58
2022/09/04 11:49:51;;;;;;;4.10;3.70;;;19.00;58.00;;;;;;5049287;28;20483;-58
2022/09/04 11:52:56;;;;;;;4.15;3.75;;;19.10;57.90;;;;;;5048782;28;20343;-59
2022/09/04 11:55:53;;;;;;;4.22;3.92;;;19.10;57.90;;;;;;5049166;28;20068;-58
2022/09/04 11:58:42;;;;;;;4.10;3.63;;;19.00;57.70;;;;;;5048448;28;20424;-59
2022/09/04 12:01:39;;;;;;;3.97;3.65;;;19.10;57.60;;;;;;5047556;28;20501;-58
2022/09/04 12:04:48;;;;;;;5.18;4.00;;;19.10;58.70;;;;;;5047075;28;20079;-58
2022/09/04 12:07:42;;;;;;;4.47;4.07;;;19.10;57.60;;;;;;5045836;28;20110;-58
2022/09/04 12:10:27;;;;;;;4.90;4.10;;;19.10;57.10;;;;;;5048808;28;20063;-58
2022/09/04 12:13:26;;;;;;;4.22;3.83;;;19.10;57.20;;;;;;5048964;28;20536;-58
2022/09/04 12:16:25;;;;;;;4.47;4.07;;;19.10;57.10;;;;;;5048871;28;20052;-58
2022/09/04 12:19:27;;;;;;;4.50;4.10;;;19.10;57.20;;;;;;5048342;28;20045;-58
2022/09/04 12:22:33;;;;;;;4.38;3.97;;;19.10;57.40;;;;;;5048148;28;20053;-59
2022/09/04 12:25:31;;;;;;;4.68;4.28;;;19.10;57.10;;;;;;5047272;28;20045;-58
2022/09/04 12:28:36;;;;;;;4.05;3.75;;;19.10;57.10;;;;;;5047624;28;20080;-58
2022/09/04 12:31:45;;;;;;;4.50;4.13;;;19.10;57.80;;;;;;5048796;28;20094;-58
2022/09/04 12:34:49;;;;;;;4.45;4.05;;;19.10;57.50;;;;;;5047332;28;20477;-58
2022/09/04 12:37:47;;;;;;;4.47;4.07;;;19.00;57.30;;;;;;5043173;28;20115;-58
2022/09/04 12:40:35;;;;;;;4.10;3.70;;;19.00;57.80;;;;;;5028065;28;20045;-58
2022/09/04 12:43:30;;;;;;;4.72;4.25;;;19.00;57.90;;;;;;5028388;28;20046;-58
2022/09/04 12:46:30;;;;;;;5.55;4.32;;;19.10;58.20;;;;;;5026739;28;20640;-58
2022/09/04 12:49:37;;;;;;;4.18;3.75;;;19.10;58.00;;;;;;5028141;28;20077;-58
2022/09/04 12:52:32;;;;;;;4.35;3.95;;;19.10;58.00;;;;;;5028146;28;20736;-58
2022/09/04 12:55:23;;;;;;;4.85;3.85;;;19.20;58.10;;;;;;5027619;28;20049;-58
2022/09/04 12:58:34;;;;;;;3.70;3.40;;;19.20;58.20;;;;;;5028154;28;20061;-58
2022/09/04 13:01:35;;;;;;;4.30;3.92;;;19.10;58.10;;;;;;5028222;28;20092;-58
2022/09/04 13:04:29;;;;;;;3.95;3.65;;;19.20;57.60;;;;;;5027413;28;20107;-58
2022/09/04 13:07:36;;;;;;;4.32;3.83;;;19.20;57.90;;;;;;5027369;28;20046;-58
2022/09/04 13:10:34;;;;;;;4.15;3.80;;;19.20;57.90;;;;;;5022284;28;20107;-58
2022/09/04 13:13:25;;;;;;;3.70;3.40;;;19.20;58.00;;;;;;5027177;28;20488;-58
2022/09/04 13:16:08;;;;;;;3.97;3.67;;;19.20;58.10;;;;;;5027774;28;20049;-58
2022/09/04 13:18:57;;;;;;;4.25;3.92;;;19.20;58.00;;;;;;5027780;28;20053;-58
2022/09/04 13:21:58;;;;;;;4.05;3.75;;;19.20;58.20;;;;;;5028400;28;20518;-58
2022/09/04 13:24:47;;;;;;;4.43;3.83;;;19.20;58.20;;;;;;5027908;28;20509;-58
2022/09/04 13:27:33;;;;;;;4.10;3.80;;;19.30;58.20;;;;;;5027662;28;20045;-58
2022/09/04 13:30:20;;;;;;;3.85;3.55;;;19.30;58.20;;;;;;5027364;28;20053;-58
2022/09/04 13:33:10;;;;;;;4.32;3.92;;;19.30;58.00;;;;;;5028261;28;20265;-58
2022/09/04 13:36:03;;;;;;;3.92;3.50;;;19.30;58.20;;;;;;5029200;28;20041;-58
2022/09/04 13:39:01;;;;;;;3.65;3.35;;;19.30;57.80;;;;;;5017364;28;20136;-58
2022/09/04 13:42:08;;;;;;;4.40;3.55;;;19.30;57.70;;;;;;5026433;28;20356;-58
2022/09/04 13:44:59;;;;;;;3.65;3.35;;;19.30;58.00;;;;;;5031513;28;20053;-58
2022/09/04 13:47:42;;;;;;;4.05;3.75;;;19.30;57.90;;;;;;5031193;28;20080;-58
2022/09/04 13:50:24;;;;;;;4.32;3.60;;;19.30;57.80;;;;;;5030061;28;20099;-58
2022/09/04 13:53:09;;;;;;;4.22;3.78;;;19.40;58.00;;;;;;5031286;28;20107;-58
2022/09/04 13:55:40;;;;;;;3.90;3.30;;;19.40;57.80;;;;;;5031232;28;20448;-58
2022/09/04 13:58:18;;;;;;;4.20;3.58;;;19.40;57.70;;;;;;5031210;28;20057;-59
2022/09/04 14:00:51;;;;;;;4.35;3.95;;;19.40;57.60;;;;;;5030769;28;20095;-58
2022/09/04 14:03:41;;;;;;;3.67;3.38;;;19.40;57.80;;;;;;5031137;28;20195;-58
2022/09/04 14:06:13;;;;;;;4.22;3.83;;;19.40;57.70;;;;;;5030927;28;20596;-58
2022/09/04 14:08:43;;;;;;;4.18;3.60;;;19.40;58.10;;;;;;5031391;28;20127;-58
2022/09/04 14:11:38;;;;;;;4.00;3.70;;;19.40;58.20;;;;;;5030756;28;20489;-58
2022/09/04 14:14:41;;;;;;;4.75;3.25;;;19.40;57.70;;;;;;5028401;28;20053;-58
2022/09/04 14:17:11;;;;;;;4.07;3.67;;;19.40;57.70;;;;;;5029740;28;20037;-58
2022/09/04 14:20:01;;;;;;;3.50;3.20;;;19.40;57.80;;;;;;5030954;28;20559;-58
2022/09/04 14:22:55;;;;;;;3.95;3.40;;;19.40;57.60;;;;;;5030607;28;20518;-58
2022/09/04 14:25:53;;;;;;;3.67;3.38;;;19.40;57.50;;;;;;5030956;28;20045;-58
2022/09/04 14:28:35;;;;;;;3.45;3.15;;;19.40;57.70;;;;;;5030700;28;20053;-58
2022/09/04 14:31:28;;;;;;;3.42;3.20;;;19.40;57.60;;;;;;5030675;28;20378;-58
2022/09/04 14:34:29;;;;;;;3.60;3.30;;;19.40;57.70;;;;;;5029143;28;20490;-58
2022/09/04 14:37:34;;;;;;;3.97;3.28;;;19.40;57.80;;;;;;5029923;28;20457;-58
2022/09/04 14:40:12;;;;;;;3.60;3.30;;;19.40;57.80;;;;;;5029204;28;20111;-58
2022/09/04 14:43:21;;;;;;;3.67;3.33;;;19.40;57.90;;;;;;5030602;28;20041;-57
2022/09/04 14:46:10;;;;;;;3.80;3.50;;;19.40;57.70;;;;;;5025133;28;20477;-58
2022/09/04 14:48:43;;;;;;;3.20;2.90;;;19.40;57.60;;;;;;5030156;28;20072;-58
2022/09/04 14:51:15;;;;;;;3.40;3.10;;;19.30;57.70;;;;;;5030169;28;20056;-58
2022/09/04 14:53:54;;;;;;;3.42;3.13;;;19.30;58.60;;;;;;5030470;28;20559;-58
2022/09/04 14:56:31;;;;;;;3.58;3.25;;;19.40;59.50;;;;;;5030607;28;20046;-58
2022/09/04 14:59:26;;;;;;;3.45;3.15;;;19.50;60.10;;;;;;5029793;28;20107;-58
2022/09/04 15:02:17;;;;;;;3.35;3.05;;;19.50;60.90;;;;;;5028735;28;20490;-58
2022/09/04 15:05:00;;;;;;;3.92;3.63;;;19.70;61.60;;;;;;5029671;28;20045;-58
2022/09/04 15:07:49;;;;;;;3.60;3.30;;;19.80;62.00;;;;;;5029861;28;20238;-58
2022/09/04 15:10:46;;;;;;;3.70;3.40;;;19.90;62.30;;;;;;5028665;28;20091;-58
2022/09/04 15:13:37;;;;;;;4.10;3.28;;;20.10;62.70;;;;;;5029887;28;20088;-58